sensor_id;sensor_type;location;lat;lon;timestamp;pressure;altitude;pressure_sealevel;temperature;humidity
50292;BME280;36190;54.980;73.388;2022-10-19T00:01:04;100206.44;;;3.60;82.34
50292;BME280;36190;54.980;73.388;2022-10-19T00:03:32;100218.38;;;3.64;82.40
50292;BME280;36190;54.980;73.388;2022-10-19T00:05:59;100210.84;;;3.59;82.37
50292;BME280;36190;54.980;73.388;2022-10-19T00:08:27;100208.59;;;3.54;82.51
50292;BME280;36190;54.980;73.388;2022-10-19T00:10:55;100219.41;;;3.51;82.47
50292;BME280;36190;54.980;73.388;2022-10-19T00:13:23;100210.06;;;3.47;82.52
50292;BME280;36190;54.980;73.388;2022-10-19T00:15:50;100196.31;;;3.43;82.63
50292;BME280;36190;54.980;73.388;2022-10-19T00:18:17;100200.75;;;3.43;82.60
50292;BME280;36190;54.980;73.388;2022-10-19T00:20:45;100205.31;;;3.41;82.57
50292;BME280;36190;54.980;73.388;2022-10-19T00:23:12;100203.66;;;3.40;82.60
50292;BME280;36190;54.980;73.388;2022-10-19T00:25:40;100197.41;;;3.41;82.68
50292;BME280;36190;54.980;73.388;2022-10-19T00:28:08;100198.22;;;3.41;82.81
50292;BME280;36190;54.980;73.388;2022-10-19T00:30:36;100197.41;;;3.41;82.80
50292;BME280;36190;54.980;73.388;2022-10-19T00:33:04;100195.47;;;3.43;82.78
50292;BME280;36190;54.980;73.388;2022-10-19T00:35:31;100195.47;;;3.43;82.77
50292;BME280;36190;54.980;73.388;2022-10-19T00:37:58;100190.69;;;3.37;82.58
50292;BME280;36190;54.980;73.388;2022-10-19T00:40:25;100195.47;;;3.43;82.65
50292;BME280;36190;54.980;73.388;2022-10-19T00:42:54;100199.06;;;3.42;82.67
50292;BME280;36190;54.980;73.388;2022-10-19T00:45:23;100197.41;;;3.41;82.74
50292;BME280;36190;54.980;73.388;2022-10-19T00:47:50;100183.47;;;3.39;82.74
50292;BME280;36190;54.980;73.388;2022-10-19T00:50:18;100180.16;;;3.37;82.83
50292;BME280;36190;54.980;73.388;2022-10-19T00:52:45;100171.53;;;3.35;82.75
50292;BME280;36190;54.980;73.388;2022-10-19T00:55:13;100168.19;;;3.33;82.87
50292;BME280;36190;54.980;73.388;2022-10-19T00:57:40;100168.78;;;3.36;83.11
50292;BME280;36190;54.980;73.388;2022-10-19T01:00:08;100168.25;;;3.42;82.79
50292;BME280;36190;54.980;73.388;2022-10-19T01:02:37;100169.41;;;3.50;82.78
50292;BME280;36190;54.980;73.388;2022-10-19T01:05:05;100163.75;;;3.54;82.55
50292;BME280;36190;54.980;73.388;2022-10-19T01:07:33;100155.34;;;3.61;82.56
50292;BME280;36190;54.980;73.388;2022-10-19T01:10:01;100155.22;;;3.62;82.50
50292;BME280;36190;54.980;73.388;2022-10-19T01:15:26;100140.84;;;3.55;82.36
50292;BME280;36190;54.980;73.388;2022-10-19T01:18:03;100147.69;;;3.57;82.12
50292;BME280;36190;54.980;73.388;2022-10-19T01:21:02;100149.94;;;3.62;82.23
50292;BME280;36190;54.980;73.388;2022-10-19T01:30:06;100144.66;;;3.62;82.29
50292;BME280;36190;54.980;73.388;2022-10-19T01:32:43;100140.47;;;3.60;82.34
50292;BME280;36190;54.980;73.388;2022-10-19T01:35:19;100160.28;;;3.75;81.95
50292;BME280;36190;54.980;73.388;2022-10-19T01:37:57;100145.72;;;3.81;81.81
50292;BME280;36190;54.980;73.388;2022-10-19T01:40:30;100131.84;;;3.79;81.74
50292;BME280;36190;54.980;73.388;2022-10-19T01:43:03;100146.50;;;3.93;81.62
50292;BME280;36190;54.980;73.388;2022-10-19T01:45:40;100143.56;;;3.96;81.42
50292;BME280;36190;54.980;73.388;2022-10-19T01:48:13;100123.31;;;3.96;81.18
50292;BME280;36190;54.980;73.388;2022-10-19T01:50:46;100136.00;;;4.03;81.39
50292;BME280;36190;54.980;73.388;2022-10-19T01:53:16;100129.16;;;4.00;81.26
50292;BME280;36190;54.980;73.388;2022-10-19T01:55:48;100122.72;;;3.93;81.14
50292;BME280;36190;54.980;73.388;2022-10-19T01:58:19;100138.28;;;3.96;81.16
50292;BME280;36190;54.980;73.388;2022-10-19T02:00:51;100123.25;;;3.87;81.28
50292;BME280;36190;54.980;73.388;2022-10-19T02:03:20;100127.72;;;3.86;81.58
50292;BME280;36190;54.980;73.388;2022-10-19T02:05:49;100124.34;;;3.84;81.65
50292;BME280;36190;54.980;73.388;2022-10-19T02:08:22;100103.44;;;3.71;81.67
50292;BME280;36190;54.980;73.388;2022-10-19T02:10:52;100106.53;;;3.76;81.76
50292;BME280;36190;54.980;73.388;2022-10-19T02:13:21;100110.41;;;3.72;81.69
50292;BME280;36190;54.980;73.388;2022-10-19T02:15:51;100112.59;;;3.67;81.96
50292;BME280;36190;54.980;73.388;2022-10-19T02:18:24;100121.59;;;3.64;82.26
50292;BME280;36190;54.980;73.388;2022-10-19T02:20:53;100124.38;;;3.63;82.05
50292;BME280;36190;54.980;73.388;2022-10-19T02:23:24;100118.97;;;3.64;82.21
50292;BME280;36190;54.980;73.388;2022-10-19T02:25:53;100113.31;;;3.69;82.25
50292;BME280;36190;54.980;73.388;2022-10-19T02:28:21;100110.41;;;3.72;82.18
50292;BME280;36190;54.980;73.388;2022-10-19T02:30:50;100127.66;;;3.76;82.30
50292;BME280;36190;54.980;73.388;2022-10-19T02:33:18;100120.44;;;3.78;82.11
50292;BME280;36190;54.980;73.388;2022-10-19T02:35:45;100116.31;;;3.85;82.11
50292;BME280;36190;54.980;73.388;2022-10-19T02:38:15;100117.00;;;3.88;82.15
50292;BME280;36190;54.980;73.388;2022-10-19T02:40:51;100132.50;;;4.02;82.20
50292;BME280;36190;54.980;73.388;2022-10-19T02:43:24;100126.69;;;4.08;81.89
50292;BME280;36190;54.980;73.388;2022-10-19T02:45:59;100127.84;;;4.16;81.83
50292;BME280;36190;54.980;73.388;2022-10-19T02:48:29;100109.22;;;4.17;81.58
50292;BME280;36190;54.980;73.388;2022-10-19T02:50:58;100114.28;;;4.40;81.43
50292;BME280;36190;54.980;73.388;2022-10-19T02:53:25;100113.34;;;4.51;81.24
50292;BME280;36190;54.980;73.388;2022-10-19T02:55:52;100117.41;;;4.65;80.83
50292;BME280;36190;54.980;73.388;2022-10-19T02:58:20;100124.13;;;4.79;80.77
50292;BME280;36190;54.980;73.388;2022-10-19T03:00:47;100119.94;;;4.86;80.31
50292;BME280;36190;54.980;73.388;2022-10-19T03:03:16;100112.44;;;4.91;80.11
50292;BME280;36190;54.980;73.388;2022-10-19T03:05:43;100109.50;;;4.94;80.02
50292;BME280;36190;54.980;73.388;2022-10-19T03:08:10;100098.66;;;4.98;79.92
50292;BME280;36190;54.980;73.388;2022-10-19T03:10:38;100104.94;;;4.97;79.77
50292;BME280;36190;54.980;73.388;2022-10-19T03:13:05;100101.16;;;4.89;79.81
50292;BME280;36190;54.980;73.388;2022-10-19T03:15:32;100104.06;;;4.86;79.75
50292;BME280;36190;54.980;73.388;2022-10-19T03:18:00;100105.75;;;4.87;79.99
50292;BME280;36190;54.980;73.388;2022-10-19T03:20:28;100106.31;;;4.91;79.76
50292;BME280;36190;54.980;73.388;2022-10-19T03:22:56;100095.34;;;4.95;79.86
50292;BME280;36190;54.980;73.388;2022-10-19T03:25:23;100102.13;;;5.08;79.62
50292;BME280;36190;54.980;73.388;2022-10-19T03:27:51;100097.66;;;5.28;79.29
50292;BME280;36190;54.980;73.388;2022-10-19T03:30:18;100101.69;;;5.42;78.90
50292;BME280;36190;54.980;73.388;2022-10-19T03:32:45;100088.31;;;5.54;78.76
50292;BME280;36190;54.980;73.388;2022-10-19T03:35:13;100099.56;;;5.66;78.42
50292;BME280;36190;54.980;73.388;2022-10-19T03:37:42;100075.00;;;5.73;78.30
50292;BME280;36190;54.980;73.388;2022-10-19T03:40:09;100084.72;;;5.83;77.83
50292;BME280;36190;54.980;73.388;2022-10-19T03:42:37;100076.06;;;5.90;77.67
50292;BME280;36190;54.980;73.388;2022-10-19T03:45:05;100076.31;;;5.97;77.49
50292;BME280;36190;54.980;73.388;2022-10-19T03:47:32;100076.00;;;6.00;77.25
50292;BME280;36190;54.980;73.388;2022-10-19T03:50:00;100072.69;;;6.08;77.19
50292;BME280;36190;54.980;73.388;2022-10-19T03:52:27;100074.88;;;6.13;76.96
50292;BME280;36190;54.980;73.388;2022-10-19T03:54:56;100070.66;;;6.20;76.63
50292;BME280;36190;54.980;73.388;2022-10-19T03:57:23;100066.16;;;6.30;76.42
50292;BME280;36190;54.980;73.388;2022-10-19T03:59:50;100063.91;;;6.36;76.20
50292;BME280;36190;54.980;73.388;2022-10-19T04:02:18;100064.72;;;6.36;75.84
50292;BME280;36190;54.980;73.388;2022-10-19T04:04:45;100060.25;;;6.37;75.78
50292;BME280;36190;54.980;73.388;2022-10-19T04:07:12;100057.03;;;6.43;75.81
50292;BME280;36190;54.980;73.388;2022-10-19T04:09:40;100049.44;;;6.48;75.43
50292;BME280;36190;54.980;73.388;2022-10-19T04:12:08;100053.75;;;6.49;75.29
50292;BME280;36190;54.980;73.388;2022-10-19T04:14:36;100045.34;;;6.54;75.19
50292;BME280;36190;54.980;73.388;2022-10-19T04:17:04;100042.56;;;6.55;75.06
50292;BME280;36190;54.980;73.388;2022-10-19T04:19:31;100055.66;;;6.57;75.07
50292;BME280;36190;54.980;73.388;2022-10-19T04:21:59;100059.13;;;6.57;75.01
50292;BME280;36190;54.980;73.388;2022-10-19T04:24:26;100051.19;;;6.57;75.06
50292;BME280;36190;54.980;73.388;2022-10-19T04:26:55;100063.09;;;6.53;74.99
50292;BME280;36190;54.980;73.388;2022-10-19T04:29:25;100034.53;;;6.47;74.98
50292;BME280;36190;54.980;73.388;2022-10-19T04:31:52;100048.97;;;6.53;74.90
50292;BME280;36190;54.980;73.388;2022-10-19T04:34:20;100045.13;;;6.47;74.87
50292;BME280;36190;54.980;73.388;2022-10-19T04:36:47;100051.72;;;6.43;75.09
50292;BME280;36190;54.980;73.388;2022-10-19T04:39:14;100045.72;;;6.41;75.11
50292;BME280;36190;54.980;73.388;2022-10-19T04:41:42;100043.22;;;6.39;75.05
50292;BME280;36190;54.980;73.388;2022-10-19T04:44:09;100047.69;;;6.39;74.92
50292;BME280;36190;54.980;73.388;2022-10-19T04:46:38;100041.72;;;6.37;74.96
50292;BME280;36190;54.980;73.388;2022-10-19T04:49:05;100038.38;;;6.35;75.02
50292;BME280;36190;54.980;73.388;2022-10-19T04:51:33;100042.84;;;6.34;74.98
50292;BME280;36190;54.980;73.388;2022-10-19T04:54:01;100023.53;;;6.24;74.90
50292;BME280;36190;54.980;73.388;2022-10-19T04:56:29;100038.06;;;6.38;74.87
50292;BME280;36190;54.980;73.388;2022-10-19T04:58:57;100034.44;;;6.39;74.65
50292;BME280;36190;54.980;73.388;2022-10-19T05:01:27;100032.47;;;6.41;74.82
50292;BME280;36190;54.980;73.388;2022-10-19T05:03:57;100033.16;;;6.43;74.56
50292;BME280;36190;54.980;73.388;2022-10-19T05:06:25;100029.22;;;6.47;74.59
50292;BME280;36190;54.980;73.388;2022-10-19T05:08:52;100040.22;;;6.52;74.44
50292;BME280;36190;54.980;73.388;2022-10-19T05:11:20;100045.34;;;6.54;74.35
50292;BME280;36190;54.980;73.388;2022-10-19T05:13:47;100032.53;;;6.49;74.29
50292;BME280;36190;54.980;73.388;2022-10-19T05:16:17;100029.53;;;6.44;74.30
50292;BME280;36190;54.980;73.388;2022-10-19T05:18:46;100023.97;;;6.37;74.49
50292;BME280;36190;54.980;73.388;2022-10-19T05:21:17;100026.13;;;6.33;74.75
50292;BME280;36190;54.980;73.388;2022-10-19T05:23:45;100026.78;;;6.36;74.75
50292;BME280;36190;54.980;73.388;2022-10-19T05:26:14;100033.44;;;6.40;74.72
50292;BME280;36190;54.980;73.388;2022-10-19T05:28:43;100029.22;;;6.47;74.60
50292;BME280;36190;54.980;73.388;2022-10-19T05:31:14;100029.97;;;6.57;74.40
50292;BME280;36190;54.980;73.388;2022-10-19T05:33:42;100017.19;;;6.71;74.25
50292;BME280;36190;54.980;73.388;2022-10-19T05:36:16;100021.94;;;6.85;73.89
50292;BME280;36190;54.980;73.388;2022-10-19T05:38:46;100012.59;;;6.99;73.66
50292;BME280;36190;54.980;73.388;2022-10-19T05:41:14;100010.41;;;7.13;73.54
50292;BME280;36190;54.980;73.388;2022-10-19T05:43:42;100006.19;;;7.28;73.05
50292;BME280;36190;54.980;73.388;2022-10-19T05:46:11;100004.09;;;7.40;72.72
50292;BME280;36190;54.980;73.388;2022-10-19T05:48:39;100001.16;;;7.52;72.33
50292;BME280;36190;54.980;73.388;2022-10-19T05:51:10;100002.72;;;7.63;71.91
50292;BME280;36190;54.980;73.388;2022-10-19T05:53:39;100007.59;;;7.76;71.64
50292;BME280;36190;54.980;73.388;2022-10-19T05:56:10;99995.81;;;7.78;71.42
50292;BME280;36190;54.980;73.388;2022-10-19T05:58:39;99993.97;;;7.79;71.32
50292;BME280;36190;54.980;73.388;2022-10-19T06:01:06;100000.63;;;7.75;71.11
50292;BME280;36190;54.980;73.388;2022-10-19T06:03:34;99986.97;;;7.69;71.18
50292;BME280;36190;54.980;73.388;2022-10-19T06:06:02;99993.81;;;7.72;71.16
50292;BME280;36190;54.980;73.388;2022-10-19T06:08:30;99988.00;;;7.77;70.96
50292;BME280;36190;54.980;73.388;2022-10-19T06:11:06;99990.03;;;7.83;70.34
50292;BME280;36190;54.980;73.388;2022-10-19T06:13:34;99989.03;;;7.84;70.47
50292;BME280;36190;54.980;73.388;2022-10-19T06:16:01;99985.91;;;7.89;70.18
50292;BME280;36190;54.980;73.388;2022-10-19T06:18:29;99985.25;;;7.95;70.13
50292;BME280;36190;54.980;73.388;2022-10-19T06:21:00;99981.78;;;8.03;69.49
50292;BME280;36190;54.980;73.388;2022-10-19T06:23:28;99979.47;;;8.08;69.35
50292;BME280;36190;54.980;73.388;2022-10-19T06:25:55;99987.78;;;8.13;68.85
50292;BME280;36190;54.980;73.388;2022-10-19T06:28:24;99978.50;;;8.17;68.54
50292;BME280;36190;54.980;73.388;2022-10-19T06:30:52;99992.97;;;8.23;68.17
50292;BME280;36190;54.980;73.388;2022-10-19T06:33:19;99975.88;;;8.25;67.96
50292;BME280;36190;54.980;73.388;2022-10-19T06:35:47;99978.88;;;8.31;67.55
50292;BME280;36190;54.980;73.388;2022-10-19T06:38:14;99971.06;;;8.37;67.28
50292;BME280;36190;54.980;73.388;2022-10-19T06:40:42;99976.72;;;8.43;66.87
50292;BME280;36190;54.980;73.388;2022-10-19T06:43:09;99980.88;;;8.45;66.55
50292;BME280;36190;54.980;73.388;2022-10-19T06:45:38;99963.59;;;8.49;66.00
50292;BME280;36190;54.980;73.388;2022-10-19T06:48:06;99963.59;;;8.49;65.54
50292;BME280;36190;54.980;73.388;2022-10-19T06:50:33;99967.91;;;8.50;65.23
50292;BME280;36190;54.980;73.388;2022-10-19T06:53:01;99952.16;;;8.57;64.76
50292;BME280;36190;54.980;73.388;2022-10-19T06:55:28;99950.69;;;8.63;64.59
50292;BME280;36190;54.980;73.388;2022-10-19T06:57:57;99957.31;;;8.67;64.30
50292;BME280;36190;54.980;73.388;2022-10-19T07:00:26;99954.00;;;8.65;63.58
50292;BME280;36190;54.980;73.388;2022-10-19T07:02:55;99954.50;;;8.60;63.32
50292;BME280;36190;54.980;73.388;2022-10-19T07:05:22;99966.59;;;8.46;62.63
50292;BME280;36190;54.980;73.388;2022-10-19T07:07:49;99970.56;;;8.42;62.71
50292;BME280;36190;54.980;73.388;2022-10-19T07:10:17;99953.31;;;8.38;62.79
50292;BME280;36190;54.980;73.388;2022-10-19T07:12:44;99950.63;;;8.38;62.57
50292;BME280;36190;54.980;73.388;2022-10-19T07:15:11;99931.19;;;8.46;62.57
50292;BME280;36190;54.980;73.388;2022-10-19T07:17:39;99932.88;;;8.55;62.21
50292;BME280;36190;54.980;73.388;2022-10-19T07:20:09;99936.69;;;8.69;61.85
50292;BME280;36190;54.980;73.388;2022-10-19T07:22:36;99924.06;;;8.79;61.81
50292;BME280;36190;54.980;73.388;2022-10-19T07:25:04;99924.22;;;8.86;61.48
50292;BME280;36190;54.980;73.388;2022-10-19T07:27:33;99913.41;;;8.96;61.02
50292;BME280;36190;54.980;73.388;2022-10-19T07:30:05;99919.69;;;9.12;60.67
50292;BME280;36190;54.980;73.388;2022-10-19T07:32:32;99919.66;;;9.28;60.30
50292;BME280;36190;54.980;73.388;2022-10-19T07:34:59;99920.59;;;9.35;59.88
50292;BME280;36190;54.980;73.388;2022-10-19T07:37:28;99928.88;;;9.49;59.18
50292;BME280;36190;54.980;73.388;2022-10-19T07:39:56;99917.53;;;9.55;58.65
50292;BME280;36190;54.980;73.388;2022-10-19T07:42:23;99934.16;;;9.57;58.06
50292;BME280;36190;54.980;73.388;2022-10-19T07:44:50;99899.91;;;9.54;57.94
50292;BME280;36190;54.980;73.388;2022-10-19T07:47:18;99909.88;;;9.52;57.84
50292;BME280;36190;54.980;73.388;2022-10-19T07:49:45;99900.94;;;9.45;57.70
50292;BME280;36190;54.980;73.388;2022-10-19T07:52:12;99888.00;;;9.33;58.08
50292;BME280;36190;54.980;73.388;2022-10-19T07:54:41;99896.66;;;9.27;58.28
50292;BME280;36190;54.980;73.388;2022-10-19T07:57:10;99889.38;;;9.21;58.16
50292;BME280;36190;54.980;73.388;2022-10-19T07:59:37;99886.75;;;9.13;58.35
50292;BME280;36190;54.980;73.388;2022-10-19T08:02:07;99874.13;;;9.06;58.57
50292;BME280;36190;54.980;73.388;2022-10-19T08:04:39;99879.13;;;9.01;58.77
50292;BME280;36190;54.980;73.388;2022-10-19T08:07:07;99877.63;;;8.90;58.12
50292;BME280;36190;54.980;73.388;2022-10-19T08:09:34;99880.66;;;8.79;58.20
50292;BME280;36190;54.980;73.388;2022-10-19T08:12:04;99874.84;;;8.75;58.22
50292;BME280;36190;54.980;73.388;2022-10-19T08:14:31;99874.84;;;8.75;58.16
50292;BME280;36190;54.980;73.388;2022-10-19T08:16:59;99868.38;;;8.78;58.16
50292;BME280;36190;54.980;73.388;2022-10-19T08:19:27;99858.91;;;8.75;58.12
50292;BME280;36190;54.980;73.388;2022-10-19T08:21:54;99857.59;;;8.71;58.00
50292;BME280;36190;54.980;73.388;2022-10-19T08:24:22;99863.75;;;8.63;58.07
50292;BME280;36190;54.980;73.388;2022-10-19T08:26:49;99871.22;;;8.60;58.14
50292;BME280;36190;54.980;73.388;2022-10-19T08:29:19;99848.94;;;8.52;57.89
50292;BME280;36190;54.980;73.388;2022-10-19T08:31:47;99869.91;;;8.64;58.05
50292;BME280;36190;54.980;73.388;2022-10-19T08:34:15;99875.88;;;8.66;57.72
50292;BME280;36190;54.980;73.388;2022-10-19T08:36:43;99865.56;;;8.71;57.69
50292;BME280;36190;54.980;73.388;2022-10-19T08:39:11;99848.75;;;8.79;57.66
50292;BME280;36190;54.980;73.388;2022-10-19T08:41:51;99835.06;;;8.90;57.65
50292;BME280;36190;54.980;73.388;2022-10-19T08:47:26;99849.53;;;9.04;57.39
50292;BME280;36190;54.980;73.388;2022-10-19T08:49:59;99844.84;;;9.06;57.22
50292;BME280;36190;54.980;73.388;2022-10-19T08:52:29;99827.75;;;9.01;56.59
50292;BME280;36190;54.980;73.388;2022-10-19T08:55:00;99828.59;;;8.93;56.35
50292;BME280;36190;54.980;73.388;2022-10-19T08:57:36;99829.06;;;8.97;55.38
50292;BME280;36190;54.980;73.388;2022-10-19T09:00:11;99827.22;;;9.05;55.37
50292;BME280;36190;54.980;73.388;2022-10-19T09:02:53;99818.31;;;9.21;54.77
50292;BME280;36190;54.980;73.388;2022-10-19T09:05:38;99821.31;;;9.58;54.19
50292;BME280;36190;54.980;73.388;2022-10-19T09:08:11;99821.44;;;9.88;53.83
50292;BME280;36190;54.980;73.388;2022-10-19T09:10:40;99823.97;;;10.05;53.18
50292;BME280;36190;54.980;73.388;2022-10-19T09:13:15;99819.59;;;10.12;52.68
50292;BME280;36190;54.980;73.388;2022-10-19T09:15:45;99824.28;;;10.10;52.56
50292;BME280;36190;54.980;73.388;2022-10-19T09:18:20;99812.31;;;10.06;52.40
50292;BME280;36190;54.980;73.388;2022-10-19T09:20:50;99816.06;;;9.97;52.74
50292;BME280;36190;54.980;73.388;2022-10-19T09:23:26;99818.13;;;9.86;52.21
50292;BME280;36190;54.980;73.388;2022-10-19T09:25:55;99806.53;;;9.79;53.05
50292;BME280;36190;54.980;73.388;2022-10-19T09:28:38;99813.88;;;9.77;52.28
50292;BME280;36190;54.980;73.388;2022-10-19T09:31:13;99813.25;;;9.67;52.99
50292;BME280;36190;54.980;73.388;2022-10-19T09:33:48;99798.69;;;9.54;52.92
50292;BME280;36190;54.980;73.388;2022-10-19T09:36:17;99801.16;;;9.32;53.66
50292;BME280;36190;54.980;73.388;2022-10-19T09:38:44;99800.53;;;9.22;54.03
50292;BME280;36190;54.980;73.388;2022-10-19T09:41:16;99802.41;;;9.13;54.43
50292;BME280;36190;54.980;73.388;2022-10-19T09:43:47;99802.91;;;9.08;54.41
50292;BME280;36190;54.980;73.388;2022-10-19T09:46:27;99799.59;;;9.06;54.39
50292;BME280;36190;54.980;73.388;2022-10-19T09:48:59;99801.63;;;9.04;54.77
50292;BME280;36190;54.980;73.388;2022-10-19T09:51:38;99799.97;;;9.03;54.32
50292;BME280;36190;54.980;73.388;2022-10-19T09:54:20;99790.66;;;8.99;54.90
50292;BME280;36190;54.980;73.388;2022-10-19T09:56:52;99788.50;;;8.94;55.04
50292;BME280;36190;54.980;73.388;2022-10-19T09:59:22;99793.69;;;8.88;55.03
50292;BME280;36190;54.980;73.388;2022-10-19T10:02:02;99787.72;;;8.77;55.17
50292;BME280;36190;54.980;73.388;2022-10-19T10:04:31;99797.38;;;8.78;55.46
50292;BME280;36190;54.980;73.388;2022-10-19T10:07:02;99804.03;;;8.74;55.76
50292;BME280;36190;54.980;73.388;2022-10-19T10:09:30;99799.06;;;8.71;55.66
50292;BME280;36190;54.980;73.388;2022-10-19T10:11:58;99787.25;;;8.65;55.77
50292;BME280;36190;54.980;73.388;2022-10-19T10:14:28;99796.94;;;8.66;55.93
50292;BME280;36190;54.980;73.388;2022-10-19T10:16:59;99798.91;;;8.64;55.82
50292;BME280;36190;54.980;73.388;2022-10-19T10:19:28;99789.28;;;8.63;55.95
50292;BME280;36190;54.980;73.388;2022-10-19T10:21:59;99791.94;;;8.63;56.20
50292;BME280;36190;54.980;73.388;2022-10-19T10:24:27;99782.47;;;8.61;55.97
50292;BME280;36190;54.980;73.388;2022-10-19T10:26:57;99787.13;;;8.59;56.00
50292;BME280;36190;54.980;73.388;2022-10-19T10:29:26;99798.09;;;8.64;55.97
50292;BME280;36190;54.980;73.388;2022-10-19T10:31:58;99778.00;;;8.53;55.94
50292;BME280;36190;54.980;73.388;2022-10-19T10:34:32;99791.16;;;8.55;55.86
50292;BME280;36190;54.980;73.388;2022-10-19T10:37:02;99779.00;;;8.52;55.79
50292;BME280;36190;54.980;73.388;2022-10-19T10:39:31;99779.81;;;8.52;55.96
50292;BME280;36190;54.980;73.388;2022-10-19T10:42:04;99772.53;;;8.55;55.94
50292;BME280;36190;54.980;73.388;2022-10-19T10:44:34;99773.50;;;8.53;56.03
50292;BME280;36190;54.980;73.388;2022-10-19T10:47:11;99772.16;;;8.49;56.08
50292;BME280;36190;54.980;73.388;2022-10-19T10:49:40;99760.38;;;8.44;56.47
50292;BME280;36190;54.980;73.388;2022-10-19T10:52:12;99761.56;;;8.41;56.25
50292;BME280;36190;54.980;73.388;2022-10-19T10:54:57;99751.56;;;8.43;55.94
50292;BME280;36190;54.980;73.388;2022-10-19T10:57:27;99757.88;;;8.42;56.05
50292;BME280;36190;54.980;73.388;2022-10-19T11:00:01;99761.19;;;8.44;55.90
50292;BME280;36190;54.980;73.388;2022-10-19T11:02:38;99759.91;;;8.40;55.98
50292;BME280;36190;54.980;73.388;2022-10-19T11:05:10;99753.56;;;8.41;55.98
50292;BME280;36190;54.980;73.388;2022-10-19T11:07:42;99753.25;;;8.36;56.21
50292;BME280;36190;54.980;73.388;2022-10-19T11:10:16;99748.13;;;8.34;56.00
50292;BME280;36190;54.980;73.388;2022-10-19T11:12:51;99748.94;;;8.26;56.15
50292;BME280;36190;54.980;73.388;2022-10-19T11:15:25;99753.78;;;8.23;56.02
50292;BME280;36190;54.980;73.388;2022-10-19T11:18:03;99756.13;;;8.18;56.09
50292;BME280;36190;54.980;73.388;2022-10-19T11:20:35;99741.34;;;8.15;56.23
50292;BME280;36190;54.980;73.388;2022-10-19T11:23:14;99742.66;;;8.11;56.28
50292;BME280;36190;54.980;73.388;2022-10-19T11:25:52;99738.69;;;8.07;56.24
50292;BME280;36190;54.980;73.388;2022-10-19T11:28:34;99742.34;;;8.06;56.01
50292;BME280;36190;54.980;73.388;2022-10-19T11:31:11;99726.56;;;7.96;56.14
50292;BME280;36190;54.980;73.388;2022-10-19T11:33:54;99735.69;;;8.02;56.12
50292;BME280;36190;54.980;73.388;2022-10-19T11:36:38;99729.88;;;7.98;56.16
50292;BME280;36190;54.980;73.388;2022-10-19T11:39:29;99731.38;;;8.01;56.12
50292;BME280;36190;54.980;73.388;2022-10-19T11:42:10;99734.03;;;8.01;56.09
50292;BME280;36190;54.980;73.388;2022-10-19T11:44:52;99716.94;;;7.95;56.23
50292;BME280;36190;54.980;73.388;2022-10-19T11:47:32;99729.72;;;8.00;56.12
50292;BME280;36190;54.980;73.388;2022-10-19T11:50:24;99721.91;;;7.98;56.33
50292;BME280;36190;54.980;73.388;2022-10-19T11:53:02;99718.13;;;7.92;56.25
50292;BME280;36190;54.980;73.388;2022-10-19T11:55:41;99718.75;;;7.94;56.23
50292;BME280;36190;54.980;73.388;2022-10-19T11:58:25;99719.78;;;7.93;56.17
50292;BME280;36190;54.980;73.388;2022-10-19T12:01:01;99724.44;;;7.91;56.52
50292;BME280;36190;54.980;73.388;2022-10-19T12:04:11;99724.91;;;7.95;56.38
50292;BME280;36190;54.980;73.388;2022-10-19T12:06:49;99715.94;;;7.96;56.46
50292;BME280;36190;54.980;73.388;2022-10-19T12:09:34;99690.56;;;7.77;56.15
50292;BME280;36190;54.980;73.388;2022-10-19T12:12:18;99707.81;;;7.97;56.34
50292;BME280;36190;54.980;73.388;2022-10-19T12:14:50;99715.94;;;7.96;56.47
50292;BME280;36190;54.980;73.388;2022-10-19T12:17:23;99721.41;;;7.94;56.56
50292;BME280;36190;54.980;73.388;2022-10-19T12:19:54;99715.31;;;7.94;56.58
50292;BME280;36190;54.980;73.388;2022-10-19T12:22:25;99734.72;;;7.94;56.49
50292;BME280;36190;54.980;73.388;2022-10-19T12:24:56;99712.63;;;7.94;56.73
50292;BME280;36190;54.980;73.388;2022-10-19T12:27:30;99714.47;;;7.85;57.09
50292;BME280;36190;54.980;73.388;2022-10-19T12:30:03;99700.69;;;7.81;57.32
50292;BME280;36190;54.980;73.388;2022-10-19T12:32:35;99717.78;;;7.87;57.42
50292;BME280;36190;54.980;73.388;2022-10-19T12:35:11;99715.13;;;7.79;57.66
50292;BME280;36190;54.980;73.388;2022-10-19T12:37:48;99724.59;;;7.81;57.86
50292;BME280;36190;54.980;73.388;2022-10-19T12:40:22;99718.47;;;7.81;57.96
50292;BME280;36190;54.980;73.388;2022-10-19T12:42:58;99720.44;;;7.79;58.20
50292;BME280;36190;54.980;73.388;2022-10-19T12:45:29;99736.38;;;7.79;58.54
50292;BME280;36190;54.980;73.388;2022-10-19T12:48:21;99744.19;;;7.80;58.91
50292;BME280;36190;54.980;73.388;2022-10-19T12:51:10;99741.69;;;7.79;59.02
50292;BME280;36190;54.980;73.388;2022-10-19T12:53:40;99744.84;;;7.74;59.28
50292;BME280;36190;54.980;73.388;2022-10-19T12:56:13;99744.34;;;7.70;59.63
50292;BME280;36190;54.980;73.388;2022-10-19T12:58:49;99742.84;;;7.60;60.74
50292;BME280;36190;54.980;73.388;2022-10-19T13:01:21;99728.72;;;7.51;60.75
50292;BME280;36190;54.980;73.388;2022-10-19T13:03:52;99733.38;;;7.49;61.29
50292;BME280;36190;54.980;73.388;2022-10-19T13:06:30;99723.44;;;7.51;61.70
50292;BME280;36190;54.980;73.388;2022-10-19T13:09:01;99697.38;;;7.38;61.49
50292;BME280;36190;54.980;73.388;2022-10-19T13:11:30;99727.75;;;7.52;61.86
50292;BME280;36190;54.980;73.388;2022-10-19T13:14:01;99728.72;;;7.51;62.02
50292;BME280;36190;54.980;73.388;2022-10-19T13:16:54;99724.25;;;7.51;62.71
50292;BME280;36190;54.980;73.388;2022-10-19T13:19:22;99738.00;;;7.47;62.67
50292;BME280;36190;54.980;73.388;2022-10-19T13:22:26;99727.56;;;7.45;63.55
50292;BME280;36190;54.980;73.388;2022-10-19T13:27:56;99727.69;;;7.27;64.60
50292;BME280;36190;54.980;73.388;2022-10-19T13:30:59;99735.31;;;7.22;66.35